sensor_id;sensor_type;location;lat;lon;timestamp;P1;durP1;ratioP1;P2;durP2;ratioP2
70216;SDS011;65567;55.684;37.570;2023-03-01T00:01:07;2.55;;;0.68;;
70216;SDS011;65567;55.684;37.570;2023-03-01T00:03:35;1.80;;;0.30;;
70216;SDS011;65567;55.684;37.570;2023-03-01T00:06:01;2.70;;;0.57;;
70216;SDS011;65567;55.684;37.570;2023-03-01T00:08:28;3.08;;;0.70;;
70216;SDS011;65567;55.684;37.570;2023-03-01T00:11:05;1.85;;;0.60;;
70216;SDS011;65567;55.684;37.570;2023-03-01T00:13:35;2.20;;;0.60;;
70216;SDS011;65567;55.684;37.570;2023-03-01T00:16:03;3.10;;;0.60;;
70216;SDS011;65567;55.684;37.570;2023-03-01T00:18:29;1.52;;;0.47;;
70216;SDS011;65567;55.684;37.570;2023-03-01T00:20:55;0.82;;;0.30;;
70216;SDS011;65567;55.684;37.570;2023-03-01T00:23:22;2.08;;;0.55;;
70216;SDS011;65567;55.684;37.570;2023-03-01T00:25:48;4.30;;;0.50;;
70216;SDS011;65567;55.684;37.570;2023-03-01T00:28:15;1.45;;;0.45;;
70216;SDS011;65567;55.684;37.570;2023-03-01T00:30:41;3.40;;;0.73;;
70216;SDS011;65567;55.684;37.570;2023-03-01T00:33:07;1.17;;;0.50;;
70216;SDS011;65567;55.684;37.570;2023-03-01T00:35:33;1.40;;;0.30;;
70216;SDS011;65567;55.684;37.570;2023-03-01T00:38:00;0.50;;;0.22;;
70216;SDS011;65567;55.684;37.570;2023-03-01T00:40:27;2.90;;;0.50;;
70216;SDS011;65567;55.684;37.570;2023-03-01T00:42:54;3.65;;;0.43;;
70216;SDS011;65567;55.684;37.570;2023-03-01T00:45:21;1.45;;;0.35;;
70216;SDS011;65567;55.684;37.570;2023-03-01T00:47:50;1.67;;;0.43;;
70216;SDS011;65567;55.684;37.570;2023-03-01T00:50:17;1.85;;;0.40;;
70216;SDS011;65567;55.684;37.570;2023-03-01T00:52:44;2.33;;;0.57;;
70216;SDS011;65567;55.684;37.570;2023-03-01T00:55:10;1.77;;;0.50;;
70216;SDS011;65567;55.684;37.570;2023-03-01T00:57:36;3.78;;;0.60;;
70216;SDS011;65567;55.684;37.570;2023-03-01T01:00:04;1.58;;;0.30;;
70216;SDS011;65567;55.684;37.570;2023-03-01T01:02:34;1.23;;;0.60;;
70216;SDS011;65567;55.684;37.570;2023-03-01T01:05:00;0.87;;;0.50;;
70216;SDS011;65567;55.684;37.570;2023-03-01T01:07:29;1.98;;;0.22;;
70216;SDS011;65567;55.684;37.570;2023-03-01T01:09:55;0.55;;;0.25;;
70216;SDS011;65567;55.684;37.570;2023-03-01T01:12:21;2.10;;;0.30;;
70216;SDS011;65567;55.684;37.570;2023-03-01T01:14:47;1.85;;;0.50;;
70216;SDS011;65567;55.684;37.570;2023-03-01T01:17:13;1.77;;;0.40;;
70216;SDS011;65567;55.684;37.570;2023-03-01T01:19:40;3.70;;;0.80;;
70216;SDS011;65567;55.684;37.570;2023-03-01T01:22:06;1.55;;;0.30;;
70216;SDS011;65567;55.684;37.570;2023-03-01T01:24:32;1.60;;;0.80;;
70216;SDS011;65567;55.684;37.570;2023-03-01T01:26:57;2.10;;;0.40;;
70216;SDS011;65567;55.684;37.570;2023-03-01T01:29:23;2.63;;;0.60;;
70216;SDS011;65567;55.684;37.570;2023-03-01T01:31:49;1.33;;;0.30;;
70216;SDS011;65567;55.684;37.570;2023-03-01T01:34:16;1.08;;;0.30;;
70216;SDS011;65567;55.684;37.570;2023-03-01T01:36:53;2.55;;;0.82;;
70216;SDS011;65567;55.684;37.570;2023-03-01T01:39:19;1.67;;;0.35;;
70216;SDS011;65567;55.684;37.570;2023-03-01T01:41:46;4.93;;;0.60;;
70216;SDS011;65567;55.684;37.570;2023-03-01T01:44:14;3.53;;;0.50;;
70216;SDS011;65567;55.684;37.570;2023-03-01T01:47:02;1.57;;;0.23;;
70216;SDS011;65567;55.684;37.570;2023-03-01T01:49:32;3.60;;;0.50;;
70216;SDS011;65567;55.684;37.570;2023-03-01T01:52:24;4.22;;;0.63;;
70216;SDS011;65567;55.684;37.570;2023-03-01T01:55:11;2.28;;;0.47;;
70216;SDS011;65567;55.684;37.570;2023-03-01T01:57:47;2.42;;;0.50;;
70216;SDS011;65567;55.684;37.570;2023-03-01T02:00:21;1.33;;;0.43;;
70216;SDS011;65567;55.684;37.570;2023-03-01T02:02:50;1.63;;;0.40;;
70216;SDS011;65567;55.684;37.570;2023-03-01T02:05:22;0.80;;;0.30;;
70216;SDS011;65567;55.684;37.570;2023-03-01T02:07:54;3.58;;;0.70;;
70216;SDS011;65567;55.684;37.570;2023-03-01T02:10:21;1.33;;;0.50;;
70216;SDS011;65567;55.684;37.570;2023-03-01T02:12:48;0.38;;;0.30;;
70216;SDS011;65567;55.684;37.570;2023-03-01T02:15:15;3.47;;;0.43;;
70216;SDS011;65567;55.684;37.570;2023-03-01T02:17:41;1.98;;;0.45;;
70216;SDS011;65567;55.684;37.570;2023-03-01T02:20:19;2.65;;;0.40;;
70216;SDS011;65567;55.684;37.570;2023-03-01T02:22:59;2.88;;;0.80;;
70216;SDS011;65567;55.684;37.570;2023-03-01T02:30:42;1.75;;;0.55;;
70216;SDS011;65567;55.684;37.570;2023-03-01T02:33:29;1.63;;;0.45;;
70216;SDS011;65567;55.684;37.570;2023-03-01T02:36:01;1.15;;;0.40;;
70216;SDS011;65567;55.684;37.570;2023-03-01T02:38:30;1.15;;;0.28;;
70216;SDS011;65567;55.684;37.570;2023-03-01T02:40:57;2.85;;;0.63;;
70216;SDS011;65567;55.684;37.570;2023-03-01T02:43:24;2.13;;;0.47;;
70216;SDS011;65567;55.684;37.570;2023-03-01T02:45:58;1.35;;;0.40;;
70216;SDS011;65567;55.684;37.570;2023-03-01T02:48:38;2.30;;;0.60;;
70216;SDS011;65567;55.684;37.570;2023-03-01T02:56:43;1.08;;;0.40;;
70216;SDS011;65567;55.684;37.570;2023-03-01T02:59:14;3.28;;;0.40;;
70216;SDS011;65567;55.684;37.570;2023-03-01T03:01:43;1.00;;;0.40;;
70216;SDS011;65567;55.684;37.570;2023-03-01T03:04:10;5.03;;;0.77;;
70216;SDS011;65567;55.684;37.570;2023-03-01T03:06:46;2.28;;;0.57;;
70216;SDS011;65567;55.684;37.570;2023-03-01T03:09:14;1.33;;;0.30;;
70216;SDS011;65567;55.684;37.570;2023-03-01T03:11:41;3.20;;;0.47;;
70216;SDS011;65567;55.684;37.570;2023-03-01T03:14:08;1.30;;;0.35;;
70216;SDS011;65567;55.684;37.570;2023-03-01T03:16:40;2.17;;;0.47;;
70216;SDS011;65567;55.684;37.570;2023-03-01T03:19:07;1.13;;;0.30;;
70216;SDS011;65567;55.684;37.570;2023-03-01T03:21:33;2.60;;;0.65;;
70216;SDS011;65567;55.684;37.570;2023-03-01T03:23:59;1.67;;;0.52;;
70216;SDS011;65567;55.684;37.570;2023-03-01T03:26:25;1.42;;;0.40;;
70216;SDS011;65567;55.684;37.570;2023-03-01T03:28:51;1.08;;;0.30;;
70216;SDS011;65567;55.684;37.570;2023-03-01T03:31:17;3.40;;;0.60;;
70216;SDS011;65567;55.684;37.570;2023-03-01T03:33:43;2.53;;;0.45;;
70216;SDS011;65567;55.684;37.570;2023-03-01T03:36:09;3.88;;;0.40;;
70216;SDS011;65567;55.684;37.570;2023-03-01T03:38:43;1.42;;;0.43;;
70216;SDS011;65567;55.684;37.570;2023-03-01T03:41:11;4.78;;;0.40;;
70216;SDS011;65567;55.684;37.570;2023-03-01T03:43:38;2.08;;;0.60;;
70216;SDS011;65567;55.684;37.570;2023-03-01T03:46:06;2.95;;;0.40;;
70216;SDS011;65567;55.684;37.570;2023-03-01T03:48:36;1.55;;;0.40;;
70216;SDS011;65567;55.684;37.570;2023-03-01T03:51:03;2.67;;;0.40;;
70216;SDS011;65567;55.684;37.570;2023-03-01T03:53:33;0.50;;;0.20;;
70216;SDS011;65567;55.684;37.570;2023-03-01T03:55:59;2.92;;;0.60;;
70216;SDS011;65567;55.684;37.570;2023-03-01T03:58:25;2.30;;;0.65;;
70216;SDS011;65567;55.684;37.570;2023-03-01T04:00:52;3.42;;;0.70;;
70216;SDS011;65567;55.684;37.570;2023-03-01T04:03:24;3.80;;;1.63;;
70216;SDS011;65567;55.684;37.570;2023-03-01T04:05:51;4.63;;;0.93;;
70216;SDS011;65567;55.684;37.570;2023-03-01T04:08:18;1.65;;;0.45;;
70216;SDS011;65567;55.684;37.570;2023-03-01T04:10:50;4.85;;;0.47;;
70216;SDS011;65567;55.684;37.570;2023-03-01T04:13:19;3.50;;;0.75;;
70216;SDS011;65567;55.684;37.570;2023-03-01T04:15:48;2.97;;;0.60;;
70216;SDS011;65567;55.684;37.570;2023-03-01T04:18:16;0.57;;;0.30;;
70216;SDS011;65567;55.684;37.570;2023-03-01T04:20:44;4.13;;;0.63;;
70216;SDS011;65567;55.684;37.570;2023-03-01T04:23:11;1.35;;;0.43;;
70216;SDS011;65567;55.684;37.570;2023-03-01T04:28:21;4.38;;;0.52;;
70216;SDS011;65567;55.684;37.570;2023-03-01T04:30:55;2.95;;;0.90;;
70216;SDS011;65567;55.684;37.570;2023-03-01T04:33:23;5.15;;;0.52;;
70216;SDS011;65567;55.684;37.570;2023-03-01T04:35:50;5.20;;;1.20;;
70216;SDS011;65567;55.684;37.570;2023-03-01T04:38:17;3.20;;;0.50;;
70216;SDS011;65567;55.684;37.570;2023-03-01T04:40:44;3.33;;;0.57;;
70216;SDS011;65567;55.684;37.570;2023-03-01T04:43:11;1.58;;;0.63;;
70216;SDS011;65567;55.684;37.570;2023-03-01T04:45:39;2.42;;;0.70;;
70216;SDS011;65567;55.684;37.570;2023-03-01T04:48:05;2.78;;;0.60;;
70216;SDS011;65567;55.684;37.570;2023-03-01T04:50:31;2.30;;;1.25;;
70216;SDS011;65567;55.684;37.570;2023-03-01T04:52:58;4.55;;;0.80;;
70216;SDS011;65567;55.684;37.570;2023-03-01T04:55:24;2.40;;;0.75;;
70216;SDS011;65567;55.684;37.570;2023-03-01T04:57:52;2.47;;;1.00;;
70216;SDS011;65567;55.684;37.570;2023-03-01T05:00:19;1.10;;;0.40;;
70216;SDS011;65567;55.684;37.570;2023-03-01T05:02:48;1.92;;;0.60;;
70216;SDS011;65567;55.684;37.570;2023-03-01T05:05:19;2.88;;;0.60;;
70216;SDS011;65567;55.684;37.570;2023-03-01T05:07:56;1.17;;;0.50;;
70216;SDS011;65567;55.684;37.570;2023-03-01T05:10:24;2.75;;;0.90;;
70216;SDS011;65567;55.684;37.570;2023-03-01T05:12:52;2.65;;;0.82;;
70216;SDS011;65567;55.684;37.570;2023-03-01T05:15:18;4.22;;;0.80;;
70216;SDS011;65567;55.684;37.570;2023-03-01T05:17:47;2.85;;;0.90;;
70216;SDS011;65567;55.684;37.570;2023-03-01T05:20:13;2.40;;;0.80;;
70216;SDS011;65567;55.684;37.570;2023-03-01T05:22:39;2.20;;;0.95;;
70216;SDS011;65567;55.684;37.570;2023-03-01T05:25:05;4.55;;;1.20;;
70216;SDS011;65567;55.684;37.570;2023-03-01T05:27:32;5.38;;;1.67;;
70216;SDS011;65567;55.684;37.570;2023-03-01T05:29:59;2.55;;;1.00;;
70216;SDS011;65567;55.684;37.570;2023-03-01T05:32:41;4.63;;;1.35;;
70216;SDS011;65567;55.684;37.570;2023-03-01T05:35:09;3.30;;;1.10;;
70216;SDS011;65567;55.684;37.570;2023-03-01T05:37:39;3.53;;;1.10;;
70216;SDS011;65567;55.684;37.570;2023-03-01T05:40:10;2.78;;;0.73;;
70216;SDS011;65567;55.684;37.570;2023-03-01T05:42:50;4.47;;;1.30;;
70216;SDS011;65567;55.684;37.570;2023-03-01T05:45:19;3.20;;;0.95;;
70216;SDS011;65567;55.684;37.570;2023-03-01T05:47:47;3.85;;;1.17;;
70216;SDS011;65567;55.684;37.570;2023-03-01T05:50:16;6.30;;;1.30;;
70216;SDS011;65567;55.684;37.570;2023-03-01T05:52:56;3.58;;;1.35;;
70216;SDS011;65567;55.684;37.570;2023-03-01T05:55:27;6.78;;;1.17;;
70216;SDS011;65567;55.684;37.570;2023-03-01T05:57:54;5.07;;;1.45;;
70216;SDS011;65567;55.684;37.570;2023-03-01T06:00:22;2.75;;;1.02;;
70216;SDS011;65567;55.684;37.570;2023-03-01T06:02:48;5.05;;;1.60;;
70216;SDS011;65567;55.684;37.570;2023-03-01T06:05:17;4.35;;;1.30;;
70216;SDS011;65567;55.684;37.570;2023-03-01T06:07:43;3.90;;;1.35;;
70216;SDS011;65567;55.684;37.570;2023-03-01T06:10:10;2.58;;;0.98;;
70216;SDS011;65567;55.684;37.570;2023-03-01T06:12:37;5.70;;;1.63;;
70216;SDS011;65567;55.684;37.570;2023-03-01T06:15:04;5.03;;;1.55;;
70216;SDS011;65567;55.684;37.570;2023-03-01T06:17:32;4.40;;;1.33;;
70216;SDS011;65567;55.684;37.570;2023-03-01T06:20:06;4.55;;;1.10;;
70216;SDS011;65567;55.684;37.570;2023-03-01T06:22:35;3.63;;;1.30;;
70216;SDS011;65567;55.684;37.570;2023-03-01T06:25:01;3.60;;;1.10;;
70216;SDS011;65567;55.684;37.570;2023-03-01T06:27:27;2.80;;;0.80;;
70216;SDS011;65567;55.684;37.570;2023-03-01T06:29:53;4.95;;;2.60;;
70216;SDS011;65567;55.684;37.570;2023-03-01T06:32:19;2.58;;;1.00;;
70216;SDS011;65567;55.684;37.570;2023-03-01T06:34:45;2.88;;;0.90;;
70216;SDS011;65567;55.684;37.570;2023-03-01T06:37:11;2.50;;;0.77;;
70216;SDS011;65567;55.684;37.570;2023-03-01T06:39:37;4.38;;;0.90;;
70216;SDS011;65567;55.684;37.570;2023-03-01T06:42:04;6.03;;;1.05;;
70216;SDS011;65567;55.684;37.570;2023-03-01T06:44:35;4.43;;;1.00;;
70216;SDS011;65567;55.684;37.570;2023-03-01T06:47:24;4.88;;;0.90;;
70216;SDS011;65567;55.684;37.570;2023-03-01T06:49:49;5.43;;;0.90;;
70216;SDS011;65567;55.684;37.570;2023-03-01T06:52:15;6.53;;;1.13;;
70216;SDS011;65567;55.684;37.570;2023-03-01T06:54:41;4.45;;;1.10;;
70216;SDS011;65567;55.684;37.570;2023-03-01T06:57:07;5.18;;;1.33;;
70216;SDS011;65567;55.684;37.570;2023-03-01T06:59:32;3.47;;;1.13;;
70216;SDS011;65567;55.684;37.570;2023-03-01T07:01:58;3.42;;;1.00;;
70216;SDS011;65567;55.684;37.570;2023-03-01T07:04:24;3.70;;;1.20;;
70216;SDS011;65567;55.684;37.570;2023-03-01T07:06:50;6.85;;;1.63;;
70216;SDS011;65567;55.684;37.570;2023-03-01T07:09:23;3.22;;;1.05;;
70216;SDS011;65567;55.684;37.570;2023-03-01T07:11:50;3.10;;;1.10;;
70216;SDS011;65567;55.684;37.570;2023-03-01T07:14:16;4.32;;;1.40;;
70216;SDS011;65567;55.684;37.570;2023-03-01T07:16:42;2.38;;;0.85;;
70216;SDS011;65567;55.684;37.570;2023-03-01T07:19:08;3.67;;;0.98;;
70216;SDS011;65567;55.684;37.570;2023-03-01T07:21:34;3.38;;;1.00;;
70216;SDS011;65567;55.684;37.570;2023-03-01T07:24:00;4.05;;;1.70;;
70216;SDS011;65567;55.684;37.570;2023-03-01T07:26:25;3.60;;;1.20;;
70216;SDS011;65567;55.684;37.570;2023-03-01T07:28:51;4.15;;;1.05;;
70216;SDS011;65567;55.684;37.570;2023-03-01T07:31:17;5.15;;;1.40;;
70216;SDS011;65567;55.684;37.570;2023-03-01T07:33:43;3.75;;;0.80;;
70216;SDS011;65567;55.684;37.570;2023-03-01T07:36:09;3.55;;;0.90;;
70216;SDS011;65567;55.684;37.570;2023-03-01T07:38:35;2.65;;;0.77;;
70216;SDS011;65567;55.684;37.570;2023-03-01T07:41:02;4.32;;;1.50;;
70216;SDS011;65567;55.684;37.570;2023-03-01T07:43:29;4.15;;;1.20;;
70216;SDS011;65567;55.684;37.570;2023-03-01T07:46:00;5.57;;;1.30;;
70216;SDS011;65567;55.684;37.570;2023-03-01T07:48:27;5.53;;;1.35;;
70216;SDS011;65567;55.684;37.570;2023-03-01T07:50:53;2.90;;;1.00;;
70216;SDS011;65567;55.684;37.570;2023-03-01T07:53:19;3.88;;;1.48;;
70216;SDS011;65567;55.684;37.570;2023-03-01T07:55:47;3.63;;;1.30;;
70216;SDS011;65567;55.684;37.570;2023-03-01T07:58:13;3.30;;;0.88;;
70216;SDS011;65567;55.684;37.570;2023-03-01T08:00:39;3.13;;;1.00;;
70216;SDS011;65567;55.684;37.570;2023-03-01T08:03:05;3.85;;;1.05;;
70216;SDS011;65567;55.684;37.570;2023-03-01T08:05:33;4.15;;;1.27;;
70216;SDS011;65567;55.684;37.570;2023-03-01T08:07:59;4.32;;;1.02;;
70216;SDS011;65567;55.684;37.570;2023-03-01T08:10:25;5.47;;;0.98;;
70216;SDS011;65567;55.684;37.570;2023-03-01T08:12:51;3.17;;;1.08;;
70216;SDS011;65567;55.684;37.570;2023-03-01T08:15:18;4.28;;;1.33;;
70216;SDS011;65567;55.684;37.570;2023-03-01T08:17:44;4.43;;;1.05;;
70216;SDS011;65567;55.684;37.570;2023-03-01T08:20:10;8.80;;;1.52;;
70216;SDS011;65567;55.684;37.570;2023-03-01T08:22:37;3.58;;;1.10;;
70216;SDS011;65567;55.684;37.570;2023-03-01T08:25:04;3.95;;;1.48;;
70216;SDS011;65567;55.684;37.570;2023-03-01T08:27:30;3.55;;;1.52;;
70216;SDS011;65567;55.684;37.570;2023-03-01T08:29:56;3.97;;;1.10;;
70216;SDS011;65567;55.684;37.570;2023-03-01T08:32:21;6.90;;;1.42;;
70216;SDS011;65567;55.684;37.570;2023-03-01T08:34:47;4.00;;;1.15;;
70216;SDS011;65567;55.684;37.570;2023-03-01T08:37:13;6.30;;;1.27;;
70216;SDS011;65567;55.684;37.570;2023-03-01T08:39:39;3.30;;;1.20;;
70216;SDS011;65567;55.684;37.570;2023-03-01T08:42:05;4.32;;;1.40;;
70216;SDS011;65567;55.684;37.570;2023-03-01T08:44:31;3.90;;;1.33;;
70216;SDS011;65567;55.684;37.570;2023-03-01T08:46:57;4.13;;;1.20;;
70216;SDS011;65567;55.684;37.570;2023-03-01T08:49:23;3.28;;;1.10;;
70216;SDS011;65567;55.684;37.570;2023-03-01T08:51:49;3.47;;;1.00;;
70216;SDS011;65567;55.684;37.570;2023-03-01T08:54:16;5.35;;;1.30;;
70216;SDS011;65567;55.684;37.570;2023-03-01T08:56:44;2.70;;;1.00;;
70216;SDS011;65567;55.684;37.570;2023-03-01T08:59:12;3.95;;;1.48;;
70216;SDS011;65567;55.684;37.570;2023-03-01T09:01:39;5.15;;;1.17;;
70216;SDS011;65567;55.684;37.570;2023-03-01T09:04:05;3.40;;;1.25;;
70216;SDS011;65567;55.684;37.570;2023-03-01T09:06:31;3.15;;;1.10;;
70216;SDS011;65567;55.684;37.570;2023-03-01T09:09:00;2.83;;;1.02;;
70216;SDS011;65567;55.684;37.570;2023-03-01T09:11:28;6.40;;;1.45;;
70216;SDS011;65567;55.684;37.570;2023-03-01T09:13:54;6.22;;;1.60;;
70216;SDS011;65567;55.684;37.570;2023-03-01T09:16:20;3.05;;;1.05;;
70216;SDS011;65567;55.684;37.570;2023-03-01T09:18:51;4.45;;;1.23;;
70216;SDS011;65567;55.684;37.570;2023-03-01T09:21:19;4.13;;;1.38;;
70216;SDS011;65567;55.684;37.570;2023-03-01T09:23:50;6.28;;;1.38;;
70216;SDS011;65567;55.684;37.570;2023-03-01T09:26:22;3.13;;;1.00;;
70216;SDS011;65567;55.684;37.570;2023-03-01T09:28:52;4.22;;;1.40;;
70216;SDS011;65567;55.684;37.570;2023-03-01T09:31:20;3.10;;;1.13;;
70216;SDS011;65567;55.684;37.570;2023-03-01T09:33:48;2.30;;;0.95;;
70216;SDS011;65567;55.684;37.570;2023-03-01T09:36:16;3.22;;;1.23;;
70216;SDS011;65567;55.684;37.570;2023-03-01T09:38:44;3.57;;;1.17;;
70216;SDS011;65567;55.684;37.570;2023-03-01T09:41:58;3.50;;;1.05;;
70216;SDS011;65567;55.684;37.570;2023-03-01T09:44:28;4.80;;;1.63;;
70216;SDS011;65567;55.684;37.570;2023-03-01T09:47:35;3.67;;;0.93;;
70216;SDS011;65567;55.684;37.570;2023-03-01T09:50:20;4.43;;;1.10;;
70216;SDS011;65567;55.684;37.570;2023-03-01T09:55:37;4.03;;;1.23;;
70216;SDS011;65567;55.684;37.570;2023-03-01T10:00:49;3.83;;;1.30;;
70216;SDS011;65567;55.684;37.570;2023-03-01T10:09:05;2.95;;;1.00;;
70216;SDS011;65567;55.684;37.570;2023-03-01T10:11:41;6.10;;;1.40;;
70216;SDS011;65567;55.684;37.570;2023-03-01T10:17:02;6.00;;;1.20;;
70216;SDS011;65567;55.684;37.570;2023-03-01T10:19:41;2.47;;;1.00;;
70216;SDS011;65567;55.684;37.570;2023-03-01T10:22:30;3.90;;;1.08;;
70216;SDS011;65567;55.684;37.570;2023-03-01T10:24:57;4.53;;;1.00;;
70216;SDS011;65567;55.684;37.570;2023-03-01T10:35:42;4.00;;;1.10;;
70216;SDS011;65567;55.684;37.570;2023-03-01T10:38:08;5.03;;;1.08;;
70216;SDS011;65567;55.684;37.570;2023-03-01T10:40:36;2.85;;;1.00;;
70216;SDS011;65567;55.684;37.570;2023-03-01T10:43:20;4.30;;;0.95;;
70216;SDS011;65567;55.684;37.570;2023-03-01T10:45:47;7.50;;;1.15;;
70216;SDS011;65567;55.684;37.570;2023-03-01T10:48:18;4.65;;;1.10;;
70216;SDS011;65567;55.684;37.570;2023-03-01T10:51:17;3.40;;;0.70;;
70216;SDS011;65567;55.684;37.570;2023-03-01T10:53:47;3.03;;;1.15;;
70216;SDS011;65567;55.684;37.570;2023-03-01T10:56:16;3.83;;;1.20;;
70216;SDS011;65567;55.684;37.570;2023-03-01T10:59:03;2.72;;;1.02;;
70216;SDS011;65567;55.684;37.570;2023-03-01T11:01:33;3.03;;;0.98;;
70216;SDS011;65567;55.684;37.570;2023-03-01T11:04:10;4.85;;;1.00;;
70216;SDS011;65567;55.684;37.570;2023-03-01T11:06:38;3.65;;;0.90;;
70216;SDS011;65567;55.684;37.570;2023-03-01T11:09:18;4.07;;;0.85;;
70216;SDS011;65567;55.684;37.570;2023-03-01T11:11:56;2.60;;;0.82;;
70216;SDS011;65567;55.684;37.570;2023-03-01T11:14:37;3.67;;;1.00;;
70216;SDS011;65567;55.684;37.570;2023-03-01T11:19:38;3.72;;;1.60;;
70216;SDS011;65567;55.684;37.570;2023-03-01T11:22:10;4.30;;;0.85;;
70216;SDS011;65567;55.684;37.570;2023-03-01T11:24:40;2.85;;;1.00;;
70216;SDS011;65567;55.684;37.570;2023-03-01T11:29:58;2.55;;;0.80;;
70216;SDS011;65567;55.684;37.570;2023-03-01T11:32:39;2.78;;;0.80;;
70216;SDS011;65567;55.684;37.570;2023-03-01T11:35:19;3.30;;;0.73;;
70216;SDS011;65567;55.684;37.570;2023-03-01T11:40:33;2.90;;;0.95;;
70216;SDS011;65567;55.684;37.570;2023-03-01T11:43:09;2.88;;;0.90;;
70216;SDS011;65567;55.684;37.570;2023-03-01T11:46:06;3.42;;;0.90;;
70216;SDS011;65567;55.684;37.570;2023-03-01T11:48:44;2.08;;;0.73;;
70216;SDS011;65567;55.684;37.570;2023-03-01T11:56:52;2.42;;;0.70;;
70216;SDS011;65567;55.684;37.570;2023-03-01T12:05:41;2.78;;;0.70;;
70216;SDS011;65567;55.684;37.570;2023-03-01T12:08:14;2.13;;;0.60;;
70216;SDS011;65567;55.684;37.570;2023-03-01T12:30:45;3.95;;;0.70;;
70216;SDS011;65567;55.684;37.570;2023-03-01T12:33:33;4.10;;;0.90;;
70216;SDS011;65567;55.684;37.570;2023-03-01T12:42:30;3.25;;;0.68;;
70216;SDS011;65567;55.684;37.570;2023-03-01T12:48:19;2.10;;;0.65;;
70216;SDS011;65567;55.684;37.570;2023-03-01T12:50:52;1.98;;;0.60;;
70216;SDS011;65567;55.684;37.570;2023-03-01T12:53:24;2.10;;;0.60;;
70216;SDS011;65567;55.684;37.570;2023-03-01T12:55:55;3.97;;;0.98;;
70216;SDS011;65567;55.684;37.570;2023-03-01T12:58:57;3.67;;;0.80;;
70216;SDS011;65567;55.684;37.570;2023-03-01T13:07:23;2.85;;;0.90;;
70216;SDS011;65567;55.684;37.570;2023-03-01T13:09:59;3.45;;;1.40;;
70216;SDS011;65567;55.684;37.570;2023-03-01T13:13:00;4.00;;;0.90;;
70216;SDS011;65567;55.684;37.570;2023-03-01T13:18:01;2.15;;;0.70;;
70216;SDS011;65567;55.684;37.570;2023-03-01T13:20:56;2.60;;;0.60;;
70216;SDS011;65567;55.684;37.570;2023-03-01T13:23:26;2.22;;;0.80;;
70216;SDS011;65567;55.684;37.570;2023-03-01T13:26:02;3.28;;;0.70;;
70216;SDS011;65567;55.684;37.570;2023-03-01T13:31:11;3.72;;;0.90;;
70216;SDS011;65567;55.684;37.570;2023-03-01T13:33:56;3.85;;;0.73;;
70216;SDS011;65567;55.684;37.570;2023-03-01T13:38:56;2.80;;;0.70;;
70216;SDS011;65567;55.684;37.570;2023-03-01T13:49:29;1.95;;;0.63;;
70216;SDS011;65567;55.684;37.570;2023-03-01T13:52:38;2.80;;;0.85;;
70216;SDS011;65567;55.684;37.570;2023-03-01T13:58:04;3.97;;;1.00;;
70216;SDS011;65567;55.684;37.570;2023-03-01T14:00:40;2.88;;;0.70;;
70216;SDS011;65567;55.684;37.570;2023-03-01T14:03:24;3.40;;;0.70;;
70216;SDS011;65567;55.684;37.570;2023-03-01T14:08:33;2.08;;;0.68;;
70216;SDS011;65567;55.684;37.570;2023-03-01T14:19:25;2.13;;;0.55;;
70216;SDS011;65567;55.684;37.570;2023-03-01T14:22:00;1.98;;;0.90;;
70216;SDS011;65567;55.684;37.570;2023-03-01T14:24:38;3.53;;;0.60;;
70216;SDS011;65567;55.684;37.570;2023-03-01T14:27:13;2.03;;;0.60;;
70216;SDS011;65567;55.684;37.570;2023-03-01T14:29:40;3.53;;;0.88;;
70216;SDS011;65567;55.684;37.570;2023-03-01T14:34:45;2.25;;;0.50;;
70216;SDS011;65567;55.684;37.570;2023-03-01T14:37:18;2.92;;;0.77;;
70216;SDS011;65567;55.684;37.570;2023-03-01T14:39:50;4.75;;;1.27;;
70216;SDS011;65567;55.684;37.570;2023-03-01T14:42:18;3.88;;;1.00;;
70216;SDS011;65567;55.684;37.570;2023-03-01T14:44:47;2.70;;;0.90;;
70216;SDS011;65567;55.684;37.570;2023-03-01T14:47:19;1.93;;;0.83;;
70216;SDS011;65567;55.684;37.570;2023-03-01T14:50:04;3.63;;;0.90;;
70216;SDS011;65567;55.684;37.570;2023-03-01T14:52:36;2.13;;;0.70;;
70216;SDS011;65567;55.684;37.570;2023-03-01T14:55:13;2.13;;;0.90;;
70216;SDS011;65567;55.684;37.570;2023-03-01T14:57:49;1.92;;;0.80;;
70216;SDS011;65567;55.684;37.570;2023-03-01T15:00:20;1.98;;;1.10;;
70216;SDS011;65567;55.684;37.570;2023-03-01T15:02:48;8.60;;;0.85;;
70216;SDS011;65567;55.684;37.570;2023-03-01T15:05:18;4.57;;;1.20;;
70216;SDS011;65567;55.684;37.570;2023-03-01T15:07:51;2.00;;;0.60;;
70216;SDS011;65567;55.684;37.570;2023-03-01T15:10:23;5.18;;;1.05;;
70216;SDS011;65567;55.684;37.570;2023-03-01T15:12:54;3.55;;;0.80;;
70216;SDS011;65567;55.684;37.570;2023-03-01T15:18:00;2.70;;;1.03;;
70216;SDS011;65567;55.684;37.570;2023-03-01T15:20:29;3.65;;;0.95;;
70216;SDS011;65567;55.684;37.570;2023-03-01T15:23:02;6.13;;;1.00;;
70216;SDS011;65567;55.684;37.570;2023-03-01T15:25:29;2.95;;;0.70;;
70216;SDS011;65567;55.684;37.570;2023-03-01T15:27:57;2.42;;;0.80;;
70216;SDS011;65567;55.684;37.570;2023-03-01T15:30:32;1.63;;;0.60;;
70216;SDS011;65567;55.684;37.570;2023-03-01T15:35:53;2.78;;;0.60;;
70216;SDS011;65567;55.684;37.570;2023-03-01T15:40:55;2.80;;;0.75;;
70216;SDS011;65567;55.684;37.570;2023-03-01T15:43:39;2.80;;;0.70;;
70216;SDS011;65567;55.684;37.570;2023-03-01T15:46:20;2.38;;;0.60;;
70216;SDS011;65567;55.684;37.570;2023-03-01T15:48:52;1.90;;;0.80;;
70216;SDS011;65567;55.684;37.570;2023-03-01T15:51:32;2.10;;;0.73;;
70216;SDS011;65567;55.684;37.570;2023-03-01T15:54:01;2.75;;;0.60;;
70216;SDS011;65567;55.684;37.570;2023-03-01T15:56:36;3.45;;;0.63;;
70216;SDS011;65567;55.684;37.570;2023-03-01T15:59:02;1.60;;;0.60;;
70216;SDS011;65567;55.684;37.570;2023-03-01T16:01:28;1.60;;;0.50;;
70216;SDS011;65567;55.684;37.570;2023-03-01T16:03:55;1.83;;;0.35;;
70216;SDS011;65567;55.684;37.570;2023-03-01T16:06:22;2.17;;;0.90;;
70216;SDS011;65567;55.684;37.570;2023-03-01T16:08:48;1.30;;;0.60;;
70216;SDS011;65567;55.684;37.570;2023-03-01T16:11:18;5.07;;;0.70;;
70216;SDS011;65567;55.684;37.570;2023-03-01T16:13:45;2.72;;;0.50;;
70216;SDS011;65567;55.684;37.570;2023-03-01T16:16:12;3.90;;;1.10;;
70216;SDS011;65567;55.684;37.570;2023-03-01T16:18:44;1.48;;;0.57;;
70216;SDS011;65567;55.684;37.570;2023-03-01T16:21:29;2.92;;;0.82;;
70216;SDS011;65567;55.684;37.570;2023-03-01T16:23:55;2.70;;;0.70;;
70216;SDS011;65567;55.684;37.570;2023-03-01T16:26:21;3.08;;;0.90;;
70216;SDS011;65567;55.684;37.570;2023-03-01T16:28:47;1.38;;;0.60;;
70216;SDS011;65567;55.684;37.570;2023-03-01T16:31:16;1.73;;;0.77;;
70216;SDS011;65567;55.684;37.570;2023-03-01T16:33:43;1.15;;;0.45;;
70216;SDS011;65567;55.684;37.570;2023-03-01T16:36:15;1.60;;;0.68;;
70216;SDS011;65567;55.684;37.570;2023-03-01T16:38:42;1.60;;;0.60;;
70216;SDS011;65567;55.684;37.570;2023-03-01T16:41:11;1.88;;;0.63;;
70216;SDS011;65567;55.684;37.570;2023-03-01T16:43:39;2.58;;;0.70;;
70216;SDS011;65567;55.684;37.570;2023-03-01T16:46:19;3.53;;;0.80;;
70216;SDS011;65567;55.684;37.570;2023-03-01T16:48:47;2.95;;;0.70;;
70216;SDS011;65567;55.684;37.570;2023-03-01T16:51:13;2.47;;;0.85;;
70216;SDS011;65567;55.684;37.570;2023-03-01T16:53:39;2.42;;;0.80;;
70216;SDS011;65567;55.684;37.570;2023-03-01T16:56:06;1.95;;;0.70;;
70216;SDS011;65567;55.684;37.570;2023-03-01T16:58:35;3.45;;;0.80;;
70216;SDS011;65567;55.684;37.570;2023-03-01T17:04:02;5.05;;;0.90;;
70216;SDS011;65567;55.684;37.570;2023-03-01T17:06:29;2.47;;;0.75;;